sensor_id;sensor_type;location;lat;lon;timestamp;temperature;humidity
20856;DHT22;63058;49.424;8.420;2023-02-15T00:00:18;6.60;92.30
20856;DHT22;63058;49.424;8.420;2023-02-15T00:02:44;6.60;92.30
20856;DHT22;63058;49.424;8.420;2023-02-15T00:05:10;6.50;92.30
20856;DHT22;63058;49.424;8.420;2023-02-15T00:07:35;6.60;92.40
20856;DHT22;63058;49.424;8.420;2023-02-15T00:10:01;6.60;92.40
20856;DHT22;63058;49.424;8.420;2023-02-15T00:12:26;6.50;92.40
20856;DHT22;63058;49.424;8.420;2023-02-15T00:14:52;6.50;92.40
20856;DHT22;63058;49.424;8.420;2023-02-15T00:17:18;6.60;92.40
20856;DHT22;63058;49.424;8.420;2023-02-15T00:19:43;6.60;92.40
20856;DHT22;63058;49.424;8.420;2023-02-15T00:22:09;6.50;92.40
20856;DHT22;63058;49.424;8.420;2023-02-15T00:24:35;6.50;92.40
20856;DHT22;63058;49.424;8.420;2023-02-15T00:27:00;6.50;92.40
20856;DHT22;63058;49.424;8.420;2023-02-15T00:29:26;6.50;92.30
20856;DHT22;63058;49.424;8.420;2023-02-15T00:31:52;6.60;92.40
20856;DHT22;63058;49.424;8.420;2023-02-15T00:34:25;6.50;92.40
20856;DHT22;63058;49.424;8.420;2023-02-15T00:36:51;6.50;92.50
20856;DHT22;63058;49.424;8.420;2023-02-15T00:39:17;6.50;92.40
20856;DHT22;63058;49.424;8.420;2023-02-15T00:41:44;6.50;92.40
20856;DHT22;63058;49.424;8.420;2023-02-15T00:44:09;6.50;92.40
20856;DHT22;63058;49.424;8.420;2023-02-15T00:46:35;6.50;92.40
20856;DHT22;63058;49.424;8.420;2023-02-15T00:49:02;6.50;92.40
20856;DHT22;63058;49.424;8.420;2023-02-15T00:51:28;6.50;92.40
20856;DHT22;63058;49.424;8.420;2023-02-15T00:53:53;6.50;92.40
20856;DHT22;63058;49.424;8.420;2023-02-15T00:56:19;6.50;92.40
20856;DHT22;63058;49.424;8.420;2023-02-15T00:58:45;6.40;92.40
20856;DHT22;63058;49.424;8.420;2023-02-15T01:01:14;6.50;92.40
20856;DHT22;63058;49.424;8.420;2023-02-15T01:03:40;6.50;92.50
20856;DHT22;63058;49.424;8.420;2023-02-15T01:06:13;6.40;92.40
20856;DHT22;63058;49.424;8.420;2023-02-15T01:08:39;6.40;92.50
20856;DHT22;63058;49.424;8.420;2023-02-15T01:11:07;6.40;92.50
20856;DHT22;63058;49.424;8.420;2023-02-15T01:13:33;6.40;92.50
20856;DHT22;63058;49.424;8.420;2023-02-15T01:15:59;6.40;92.50
20856;DHT22;63058;49.424;8.420;2023-02-15T01:18:25;6.40;92.50
20856;DHT22;63058;49.424;8.420;2023-02-15T01:20:50;6.50;92.60
20856;DHT22;63058;49.424;8.420;2023-02-15T01:23:16;6.50;92.50
20856;DHT22;63058;49.424;8.420;2023-02-15T01:25:42;6.40;92.50
20856;DHT22;63058;49.424;8.420;2023-02-15T01:28:07;6.50;92.50
20856;DHT22;63058;49.424;8.420;2023-02-15T01:30:33;6.40;92.50
20856;DHT22;63058;49.424;8.420;2023-02-15T01:32:59;6.40;92.50
20856;DHT22;63058;49.424;8.420;2023-02-15T01:35:26;6.40;92.50
20856;DHT22;63058;49.424;8.420;2023-02-15T01:37:52;6.40;92.50
20856;DHT22;63058;49.424;8.420;2023-02-15T01:40:18;6.40;92.50
20856;DHT22;63058;49.424;8.420;2023-02-15T01:42:44;6.40;92.50
20856;DHT22;63058;49.424;8.420;2023-02-15T01:50:41;6.40;92.60
20856;DHT22;63058;49.424;8.420;2023-02-15T01:55:40;6.40;92.40
20856;DHT22;63058;49.424;8.420;2023-02-15T01:58:07;6.40;92.50
20856;DHT22;63058;49.424;8.420;2023-02-15T02:00:34;6.40;92.50
20856;DHT22;63058;49.424;8.420;2023-02-15T02:03:01;6.30;92.40
20856;DHT22;63058;49.424;8.420;2023-02-15T02:05:27;6.30;92.50
20856;DHT22;63058;49.424;8.420;2023-02-15T02:07:57;6.30;92.90
20856;DHT22;63058;49.424;8.420;2023-02-15T02:10:24;6.30;92.50
20856;DHT22;63058;49.424;8.420;2023-02-15T02:12:54;6.30;92.60
20856;DHT22;63058;49.424;8.420;2023-02-15T02:15:29;6.30;92.60
20856;DHT22;63058;49.424;8.420;2023-02-15T02:21:08;6.30;92.70
20856;DHT22;63058;49.424;8.420;2023-02-15T02:34:31;6.30;92.60
20856;DHT22;63058;49.424;8.420;2023-02-15T02:40:46;6.30;92.60
20856;DHT22;63058;49.424;8.420;2023-02-15T02:42:48;6.20;92.60
20856;DHT22;63058;49.424;8.420;2023-02-15T02:45:39;6.20;92.50
20856;DHT22;63058;49.424;8.420;2023-02-15T02:48:13;6.20;92.50
20856;DHT22;63058;49.424;8.420;2023-02-15T02:50:41;6.20;92.50
20856;DHT22;63058;49.424;8.420;2023-02-15T02:53:08;6.20;92.50
20856;DHT22;63058;49.424;8.420;2023-02-15T02:56:10;6.20;92.60
20856;DHT22;63058;49.424;8.420;2023-02-15T02:58:42;6.10;92.80
20856;DHT22;63058;49.424;8.420;2023-02-15T03:01:15;6.10;92.40
20856;DHT22;63058;49.424;8.420;2023-02-15T03:04:20;6.00;92.50
20856;DHT22;63058;49.424;8.420;2023-02-15T03:07:00;6.00;92.60
20856;DHT22;63058;49.424;8.420;2023-02-15T03:09:34;6.00;92.50
20856;DHT22;63058;49.424;8.420;2023-02-15T03:12:07;5.90;92.60
20856;DHT22;63058;49.424;8.420;2023-02-15T03:14:34;5.90;92.70
20856;DHT22;63058;49.424;8.420;2023-02-15T03:17:01;5.90;92.80
20856;DHT22;63058;49.424;8.420;2023-02-15T03:19:29;6.00;92.90
20856;DHT22;63058;49.424;8.420;2023-02-15T03:22:00;6.00;93.30
20856;DHT22;63058;49.424;8.420;2023-02-15T03:24:51;6.00;92.80
20856;DHT22;63058;49.424;8.420;2023-02-15T03:27:26;6.00;92.80
20856;DHT22;63058;49.424;8.420;2023-02-15T03:29:56;6.00;92.70
20856;DHT22;63058;49.424;8.420;2023-02-15T03:32:23;5.90;92.60
20856;DHT22;63058;49.424;8.420;2023-02-15T03:34:50;5.90;92.70
20856;DHT22;63058;49.424;8.420;2023-02-15T03:40:15;5.80;92.70
20856;DHT22;63058;49.424;8.420;2023-02-15T03:43:27;5.80;92.90
20856;DHT22;63058;49.424;8.420;2023-02-15T03:45:58;5.80;93.00
20856;DHT22;63058;49.424;8.420;2023-02-15T03:48:39;5.80;93.00
20856;DHT22;63058;49.424;8.420;2023-02-15T03:51:09;5.70;93.20
20856;DHT22;63058;49.424;8.420;2023-02-15T03:53:54;5.80;93.20
20856;DHT22;63058;49.424;8.420;2023-02-15T03:56:20;5.80;93.20
20856;DHT22;63058;49.424;8.420;2023-02-15T03:58:46;5.80;93.10
20856;DHT22;63058;49.424;8.420;2023-02-15T04:01:38;5.90;93.20
20856;DHT22;63058;49.424;8.420;2023-02-15T04:04:36;5.80;93.20
20856;DHT22;63058;49.424;8.420;2023-02-15T04:07:03;5.80;93.10
20856;DHT22;63058;49.424;8.420;2023-02-15T04:09:29;5.90;93.10
20856;DHT22;63058;49.424;8.420;2023-02-15T04:12:13;5.90;93.20
20856;DHT22;63058;49.424;8.420;2023-02-15T04:14:38;5.90;93.20
20856;DHT22;63058;49.424;8.420;2023-02-15T04:17:23;5.90;93.20
20856;DHT22;63058;49.424;8.420;2023-02-15T04:19:48;5.90;93.30
20856;DHT22;63058;49.424;8.420;2023-02-15T04:22:32;6.00;93.30
20856;DHT22;63058;49.424;8.420;2023-02-15T04:25:16;6.00;93.30
20856;DHT22;63058;49.424;8.420;2023-02-15T04:27:45;6.00;93.20
20856;DHT22;63058;49.424;8.420;2023-02-15T04:30:12;6.00;93.20
20856;DHT22;63058;49.424;8.420;2023-02-15T04:32:38;6.10;93.10
20856;DHT22;63058;49.424;8.420;2023-02-15T04:35:05;6.10;93.10
20856;DHT22;63058;49.424;8.420;2023-02-15T04:37:31;6.10;93.20
20856;DHT22;63058;49.424;8.420;2023-02-15T04:39:57;6.00;93.50
20856;DHT22;63058;49.424;8.420;2023-02-15T04:42:26;6.10;93.10
20856;DHT22;63058;49.424;8.420;2023-02-15T04:44:53;6.10;93.20
20856;DHT22;63058;49.424;8.420;2023-02-15T04:47:18;6.10;93.10
20856;DHT22;63058;49.424;8.420;2023-02-15T04:49:44;6.10;93.20
20856;DHT22;63058;49.424;8.420;2023-02-15T04:52:10;6.10;93.10
20856;DHT22;63058;49.424;8.420;2023-02-15T04:54:35;6.00;93.10
20856;DHT22;63058;49.424;8.420;2023-02-15T04:57:01;5.90;93.10
20856;DHT22;63058;49.424;8.420;2023-02-15T04:59:27;6.00;93.20
20856;DHT22;63058;49.424;8.420;2023-02-15T05:01:52;6.10;93.20
20856;DHT22;63058;49.424;8.420;2023-02-15T05:04:18;6.00;93.20
20856;DHT22;63058;49.424;8.420;2023-02-15T05:06:44;6.00;93.20
20856;DHT22;63058;49.424;8.420;2023-02-15T05:09:11;5.90;93.20
20856;DHT22;63058;49.424;8.420;2023-02-15T05:11:37;5.90;93.10
20856;DHT22;63058;49.424;8.420;2023-02-15T05:14:03;5.90;93.20
20856;DHT22;63058;49.424;8.420;2023-02-15T05:16:29;5.90;93.20
20856;DHT22;63058;49.424;8.420;2023-02-15T05:18:55;5.80;93.20
20856;DHT22;63058;49.424;8.420;2023-02-15T05:21:20;5.80;93.70
20856;DHT22;63058;49.424;8.420;2023-02-15T05:23:46;5.80;93.50
20856;DHT22;63058;49.424;8.420;2023-02-15T05:26:15;5.90;93.50
20856;DHT22;63058;49.424;8.420;2023-02-15T05:29:00;5.90;93.50
20856;DHT22;63058;49.424;8.420;2023-02-15T05:31:26;5.90;93.40
20856;DHT22;63058;49.424;8.420;2023-02-15T05:33:51;5.90;93.40
20856;DHT22;63058;49.424;8.420;2023-02-15T05:36:17;5.90;93.40
20856;DHT22;63058;49.424;8.420;2023-02-15T05:38:42;5.90;93.40
20856;DHT22;63058;49.424;8.420;2023-02-15T05:41:09;5.90;93.20
20856;DHT22;63058;49.424;8.420;2023-02-15T05:43:36;5.80;93.20
20856;DHT22;63058;49.424;8.420;2023-02-15T05:46:02;5.80;93.20
20856;DHT22;63058;49.424;8.420;2023-02-15T05:48:28;5.80;93.30
20856;DHT22;63058;49.424;8.420;2023-02-15T05:51:13;5.70;93.30
20856;DHT22;63058;49.424;8.420;2023-02-15T05:53:40;5.70;93.50
20856;DHT22;63058;49.424;8.420;2023-02-15T05:56:07;5.70;93.40
20856;DHT22;63058;49.424;8.420;2023-02-15T05:58:36;5.70;93.40
20856;DHT22;63058;49.424;8.420;2023-02-15T06:01:17;5.60;93.30
20856;DHT22;63058;49.424;8.420;2023-02-15T06:03:43;5.60;93.50
20856;DHT22;63058;49.424;8.420;2023-02-15T06:06:09;5.50;93.30
20856;DHT22;63058;49.424;8.420;2023-02-15T06:08:36;5.50;93.30
20856;DHT22;63058;49.424;8.420;2023-02-15T06:11:02;5.50;93.30
20856;DHT22;63058;49.424;8.420;2023-02-15T06:13:28;5.40;93.30
20856;DHT22;63058;49.424;8.420;2023-02-15T06:15:54;5.30;93.40
20856;DHT22;63058;49.424;8.420;2023-02-15T06:18:19;5.40;93.60
20856;DHT22;63058;49.424;8.420;2023-02-15T06:20:46;5.40;93.70
20856;DHT22;63058;49.424;8.420;2023-02-15T06:23:11;5.30;93.70
20856;DHT22;63058;49.424;8.420;2023-02-15T06:25:37;5.30;93.60
20856;DHT22;63058;49.424;8.420;2023-02-15T06:28:03;5.30;93.60
20856;DHT22;63058;49.424;8.420;2023-02-15T06:30:28;5.30;93.50
20856;DHT22;63058;49.424;8.420;2023-02-15T06:32:54;5.20;93.50
20856;DHT22;63058;49.424;8.420;2023-02-15T06:35:20;5.20;93.60
20856;DHT22;63058;49.424;8.420;2023-02-15T06:37:47;5.20;93.80
20856;DHT22;63058;49.424;8.420;2023-02-15T06:40:13;5.20;94.00
20856;DHT22;63058;49.424;8.420;2023-02-15T06:42:38;5.30;94.00
20856;DHT22;63058;49.424;8.420;2023-02-15T06:45:04;5.30;94.00
20856;DHT22;63058;49.424;8.420;2023-02-15T06:47:30;5.40;94.10
20856;DHT22;63058;49.424;8.420;2023-02-15T06:49:56;5.40;94.10
20856;DHT22;63058;49.424;8.420;2023-02-15T06:52:22;5.40;94.20
20856;DHT22;63058;49.424;8.420;2023-02-15T06:54:48;5.50;94.20
20856;DHT22;63058;49.424;8.420;2023-02-15T06:57:14;5.50;94.20
20856;DHT22;63058;49.424;8.420;2023-02-15T06:59:40;5.60;94.20
20856;DHT22;63058;49.424;8.420;2023-02-15T07:02:05;5.60;94.10
20856;DHT22;63058;49.424;8.420;2023-02-15T07:04:31;5.70;94.10
20856;DHT22;63058;49.424;8.420;2023-02-15T07:06:56;5.70;94.00
20856;DHT22;63058;49.424;8.420;2023-02-15T07:09:22;5.80;94.10
20856;DHT22;63058;49.424;8.420;2023-02-15T07:11:48;5.80;94.00
20856;DHT22;63058;49.424;8.420;2023-02-15T07:14:32;5.80;93.90
20856;DHT22;63058;49.424;8.420;2023-02-15T07:16:58;5.90;93.90
20856;DHT22;63058;49.424;8.420;2023-02-15T07:19:23;5.80;93.90
20856;DHT22;63058;49.424;8.420;2023-02-15T07:21:49;5.90;93.90
20856;DHT22;63058;49.424;8.420;2023-02-15T07:24:15;5.90;93.90
20856;DHT22;63058;49.424;8.420;2023-02-15T07:26:40;5.90;93.90
20856;DHT22;63058;49.424;8.420;2023-02-15T07:29:06;5.90;93.90
20856;DHT22;63058;49.424;8.420;2023-02-15T07:31:31;6.00;93.90
20856;DHT22;63058;49.424;8.420;2023-02-15T07:33:57;6.00;93.70
20856;DHT22;63058;49.424;8.420;2023-02-15T07:36:22;5.90;93.50
20856;DHT22;63058;49.424;8.420;2023-02-15T07:38:48;5.90;93.50
20856;DHT22;63058;49.424;8.420;2023-02-15T07:41:15;5.80;93.60
20856;DHT22;63058;49.424;8.420;2023-02-15T07:43:42;5.80;93.80
20856;DHT22;63058;49.424;8.420;2023-02-15T07:46:11;5.80;93.90
20856;DHT22;63058;49.424;8.420;2023-02-15T07:48:38;5.90;94.00
20856;DHT22;63058;49.424;8.420;2023-02-15T07:51:06;5.80;93.90
20856;DHT22;63058;49.424;8.420;2023-02-15T07:53:32;5.90;94.00
20856;DHT22;63058;49.424;8.420;2023-02-15T07:55:59;5.90;93.90
20856;DHT22;63058;49.424;8.420;2023-02-15T07:58:25;5.90;93.90
20856;DHT22;63058;49.424;8.420;2023-02-15T08:01:10;5.90;93.90
20856;DHT22;63058;49.424;8.420;2023-02-15T08:03:36;5.90;93.90
20856;DHT22;63058;49.424;8.420;2023-02-15T08:06:02;5.90;93.90
20856;DHT22;63058;49.424;8.420;2023-02-15T08:08:27;5.90;93.90
20856;DHT22;63058;49.424;8.420;2023-02-15T08:11:01;6.00;93.90
20856;DHT22;63058;49.424;8.420;2023-02-15T08:13:47;6.00;94.00
20856;DHT22;63058;49.424;8.420;2023-02-15T08:16:23;6.10;93.90
20856;DHT22;63058;49.424;8.420;2023-02-15T08:18:48;6.10;93.90
20856;DHT22;63058;49.424;8.420;2023-02-15T08:21:14;6.10;93.90
20856;DHT22;63058;49.424;8.420;2023-02-15T08:23:39;6.20;93.90
20856;DHT22;63058;49.424;8.420;2023-02-15T08:26:05;6.20;93.90
20856;DHT22;63058;49.424;8.420;2023-02-15T08:28:31;6.20;93.80
20856;DHT22;63058;49.424;8.420;2023-02-15T08:31:04;6.20;93.80
20856;DHT22;63058;49.424;8.420;2023-02-15T08:33:30;6.20;93.70
20856;DHT22;63058;49.424;8.420;2023-02-15T08:35:56;6.20;93.70
20856;DHT22;63058;49.424;8.420;2023-02-15T08:38:21;6.30;93.80
20856;DHT22;63058;49.424;8.420;2023-02-15T08:40:47;6.30;93.80
20856;DHT22;63058;49.424;8.420;2023-02-15T08:43:12;6.30;93.70
20856;DHT22;63058;49.424;8.420;2023-02-15T08:45:38;6.30;93.70
20856;DHT22;63058;49.424;8.420;2023-02-15T08:48:04;6.30;93.70
20856;DHT22;63058;49.424;8.420;2023-02-15T08:50:29;6.30;93.70
20856;DHT22;63058;49.424;8.420;2023-02-15T08:52:56;6.30;93.70
20856;DHT22;63058;49.424;8.420;2023-02-15T08:55:21;6.30;93.70
20856;DHT22;63058;49.424;8.420;2023-02-15T08:57:47;6.30;93.70
20856;DHT22;63058;49.424;8.420;2023-02-15T09:00:13;6.30;93.70
20856;DHT22;63058;49.424;8.420;2023-02-15T09:02:39;6.30;93.70
20856;DHT22;63058;49.424;8.420;2023-02-15T09:05:05;6.30;93.70
20856;DHT22;63058;49.424;8.420;2023-02-15T09:07:30;6.30;93.70
20856;DHT22;63058;49.424;8.420;2023-02-15T09:09:56;6.30;93.60
20856;DHT22;63058;49.424;8.420;2023-02-15T09:12:21;6.30;93.60
20856;DHT22;63058;49.424;8.420;2023-02-15T09:14:47;6.30;93.50
20856;DHT22;63058;49.424;8.420;2023-02-15T09:17:13;6.20;93.40
20856;DHT22;63058;49.424;8.420;2023-02-15T09:19:38;6.20;93.50
20856;DHT22;63058;49.424;8.420;2023-02-15T09:22:04;6.20;93.50
20856;DHT22;63058;49.424;8.420;2023-02-15T09:24:31;6.10;93.60
20856;DHT22;63058;49.424;8.420;2023-02-15T09:26:57;6.10;93.70
20856;DHT22;63058;49.424;8.420;2023-02-15T09:29:23;6.20;93.70
20856;DHT22;63058;49.424;8.420;2023-02-15T09:31:49;6.10;93.70
20856;DHT22;63058;49.424;8.420;2023-02-15T09:34:17;6.20;93.80
20856;DHT22;63058;49.424;8.420;2023-02-15T09:36:43;6.20;93.60
20856;DHT22;63058;49.424;8.420;2023-02-15T09:39:15;6.20;93.90
20856;DHT22;63058;49.424;8.420;2023-02-15T09:56:28;6.30;93.50
20856;DHT22;63058;49.424;8.420;2023-02-15T10:12:10;6.20;93.50
20856;DHT22;63058;49.424;8.420;2023-02-15T10:22:45;6.30;93.50
20856;DHT22;63058;49.424;8.420;2023-02-15T10:25:31;6.30;93.60
20856;DHT22;63058;49.424;8.420;2023-02-15T10:28:06;6.30;93.50
20856;DHT22;63058;49.424;8.420;2023-02-15T10:30:52;6.20;93.50
20856;DHT22;63058;49.424;8.420;2023-02-15T10:33:48;6.20;93.40
20856;DHT22;63058;49.424;8.420;2023-02-15T10:39:28;6.00;93.20
20856;DHT22;63058;49.424;8.420;2023-02-15T10:42:08;6.00;93.30
20856;DHT22;63058;49.424;8.420;2023-02-15T10:44:58;5.90;93.60
20856;DHT22;63058;49.424;8.420;2023-02-15T10:47:38;6.00;93.80
20856;DHT22;63058;49.424;8.420;2023-02-15T10:58:54;6.10;94.10
20856;DHT22;63058;49.424;8.420;2023-02-15T11:07:00;6.40;94.00
20856;DHT22;63058;49.424;8.420;2023-02-15T11:09:36;6.50;94.10
20856;DHT22;63058;49.424;8.420;2023-02-15T11:12:10;6.50;94.20
20856;DHT22;63058;49.424;8.420;2023-02-15T11:14:53;6.60;94.10
20856;DHT22;63058;49.424;8.420;2023-02-15T11:17:40;6.70;93.90
20856;DHT22;63058;49.424;8.420;2023-02-15T11:20:29;6.70;93.90
20856;DHT22;63058;49.424;8.420;2023-02-15T11:22:56;6.80;93.70
20856;DHT22;63058;49.424;8.420;2023-02-15T11:25:29;6.80;93.80
20856;DHT22;63058;49.424;8.420;2023-02-15T11:27:55;6.80;93.70
20856;DHT22;63058;49.424;8.420;2023-02-15T11:30:24;6.80;93.90
20856;DHT22;63058;49.424;8.420;2023-02-15T11:32:53;6.90;93.90
20856;DHT22;63058;49.424;8.420;2023-02-15T11:35:29;6.90;93.80
20856;DHT22;63058;49.424;8.420;2023-02-15T11:38:18;7.00;93.60
20856;DHT22;63058;49.424;8.420;2023-02-15T11:40:48;7.00;93.50
20856;DHT22;63058;49.424;8.420;2023-02-15T11:46:11;7.00;93.50
20856;DHT22;63058;49.424;8.420;2023-02-15T11:48:37;7.00;93.60
20856;DHT22;63058;49.424;8.420;2023-02-15T11:51:04;7.10;93.70
20856;DHT22;63058;49.424;8.420;2023-02-15T11:53:33;7.10;93.60
20856;DHT22;63058;49.424;8.420;2023-02-15T11:55:59;7.10;93.50
20856;DHT22;63058;49.424;8.420;2023-02-15T12:01:17;7.10;93.50
20856;DHT22;63058;49.424;8.420;2023-02-15T12:03:50;7.20;93.50
20856;DHT22;63058;49.424;8.420;2023-02-15T12:06:33;7.20;93.40
20856;DHT22;63058;49.424;8.420;2023-02-15T12:11:37;7.20;93.20
20856;DHT22;63058;49.424;8.420;2023-02-15T12:14:06;7.10;93.20
20856;DHT22;63058;49.424;8.420;2023-02-15T12:16:39;7.10;93.40
20856;DHT22;63058;49.424;8.420;2023-02-15T12:19:18;7.10;93.40
20856;DHT22;63058;49.424;8.420;2023-02-15T12:21:49;7.20;93.40
20856;DHT22;63058;49.424;8.420;2023-02-15T12:26:41;7.20;93.50
20856;DHT22;63058;49.424;8.420;2023-02-15T12:29:15;7.30;93.50
20856;DHT22;63058;49.424;8.420;2023-02-15T12:31:44;7.30;93.40
20856;DHT22;63058;49.424;8.420;2023-02-15T12:34:22;7.30;93.40
20856;DHT22;63058;49.424;8.420;2023-02-15T12:36:56;7.30;93.20
20856;DHT22;63058;49.424;8.420;2023-02-15T12:39:30;7.30;93.20
20856;DHT22;63058;49.424;8.420;2023-02-15T12:42:03;7.40;93.20
20856;DHT22;63058;49.424;8.420;2023-02-15T12:44:36;7.30;93.10
20856;DHT22;63058;49.424;8.420;2023-02-15T12:49:43;7.20;93.10
20856;DHT22;63058;49.424;8.420;2023-02-15T12:54:44;7.20;93.20
20856;DHT22;63058;49.424;8.420;2023-02-15T12:57:28;7.30;93.40
20856;DHT22;63058;49.424;8.420;2023-02-15T13:00:00;7.30;93.40
20856;DHT22;63058;49.424;8.420;2023-02-15T13:02:42;7.40;93.40
20856;DHT22;63058;49.424;8.420;2023-02-15T13:08:14;7.40;93.30
20856;DHT22;63058;49.424;8.420;2023-02-15T13:10:52;7.50;93.10
20856;DHT22;63058;49.424;8.420;2023-02-15T13:13:20;7.50;93.20
20856;DHT22;63058;49.424;8.420;2023-02-15T13:15:50;7.50;93.10
20856;DHT22;63058;49.424;8.420;2023-02-15T13:18:23;7.50;93.10
20856;DHT22;63058;49.424;8.420;2023-02-15T13:20:52;7.50;93.00
20856;DHT22;63058;49.424;8.420;2023-02-15T13:23:36;7.50;93.20
20856;DHT22;63058;49.424;8.420;2023-02-15T13:26:05;7.50;93.00
20856;DHT22;63058;49.424;8.420;2023-02-15T13:28:44;7.50;93.10
20856;DHT22;63058;49.424;8.420;2023-02-15T13:31:17;7.50;93.10
20856;DHT22;63058;49.424;8.420;2023-02-15T13:34:01;7.50;93.00
20856;DHT22;63058;49.424;8.420;2023-02-15T13:36:38;7.60;93.00
20856;DHT22;63058;49.424;8.420;2023-02-15T13:39:24;7.60;93.10
20856;DHT22;63058;49.424;8.420;2023-02-15T13:52:56;7.50;92.90
20856;DHT22;63058;49.424;8.420;2023-02-15T14:01:44;7.50;93.10
20856;DHT22;63058;49.424;8.420;2023-02-15T14:04:15;7.60;93.10
20856;DHT22;63058;49.424;8.420;2023-02-15T14:07:01;7.60;93.20
20856;DHT22;63058;49.424;8.420;2023-02-15T14:15:13;7.70;93.00
20856;DHT22;63058;49.424;8.420;2023-02-15T14:17:47;7.60;92.90
20856;DHT22;63058;49.424;8.420;2023-02-15T14:23:27;7.60;92.60
20856;DHT22;63058;49.424;8.420;2023-02-15T14:26:02;7.50;92.70
20856;DHT22;63058;49.424;8.420;2023-02-15T14:31:03;7.40;93.00
20856;DHT22;63058;49.424;8.420;2023-02-15T14:35:55;7.50;93.20
20856;DHT22;63058;49.424;8.420;2023-02-15T14:41:34;7.50;92.90
20856;DHT22;63058;49.424;8.420;2023-02-15T14:46:41;7.60;93.00
20856;DHT22;63058;49.424;8.420;2023-02-15T14:49:13;7.60;92.80
20856;DHT22;63058;49.424;8.420;2023-02-15T14:54:09;7.60;92.70
20856;DHT22;63058;49.424;8.420;2023-02-15T14:56:36;7.50;92.70
20856;DHT22;63058;49.424;8.420;2023-02-15T14:59:20;7.50;92.80
20856;DHT22;63058;49.424;8.420;2023-02-15T15:01:58;7.50;92.70
20856;DHT22;63058;49.424;8.420;2023-02-15T15:04:46;7.50;92.70
20856;DHT22;63058;49.424;8.420;2023-02-15T15:07:37;7.50;92.70
20856;DHT22;63058;49.424;8.420;2023-02-15T15:12:49;7.50;92.50
20856;DHT22;63058;49.424;8.420;2023-02-15T15:18:04;7.30;92.30
20856;DHT22;63058;49.424;8.420;2023-02-15T15:26:21;7.00;92.30
20856;DHT22;63058;49.424;8.420;2023-02-15T15:31:20;7.00;92.70
20856;DHT22;63058;49.424;8.420;2023-02-15T15:34:12;7.00;92.90
20856;DHT22;63058;49.424;8.420;2023-02-15T15:48:20;6.90;93.00
20856;DHT22;63058;49.424;8.420;2023-02-15T15:50:52;7.00;93.40
20856;DHT22;63058;49.424;8.420;2023-02-15T15:53:22;7.10;93.30
20856;DHT22;63058;49.424;8.420;2023-02-15T15:55:52;7.10;93.00
20856;DHT22;63058;49.424;8.420;2023-02-15T15:58:19;7.10;92.70
20856;DHT22;63058;49.424;8.420;2023-02-15T16:00:54;7.10;92.60
20856;DHT22;63058;49.424;8.420;2023-02-15T16:03:24;7.10;92.40
20856;DHT22;63058;49.424;8.420;2023-02-15T16:05:50;7.00;92.50
20856;DHT22;63058;49.424;8.420;2023-02-15T16:08:35;6.90;92.00
20856;DHT22;63058;49.424;8.420;2023-02-15T16:11:18;6.80;91.90
20856;DHT22;63058;49.424;8.420;2023-02-15T16:13:45;6.60;91.90
20856;DHT22;63058;49.424;8.420;2023-02-15T16:16:13;6.50;91.90
20856;DHT22;63058;49.424;8.420;2023-02-15T16:18:39;6.40;92.00
20856;DHT22;63058;49.424;8.420;2023-02-15T16:21:20;6.30;92.00
20856;DHT22;63058;49.424;8.420;2023-02-15T16:29:25;6.00;92.10
20856;DHT22;63058;49.424;8.420;2023-02-15T16:32:02;5.90;92.20
20856;DHT22;63058;49.424;8.420;2023-02-15T16:34:29;5.80;92.20
20856;DHT22;63058;49.424;8.420;2023-02-15T16:37:17;5.70;92.10
20856;DHT22;63058;49.424;8.420;2023-02-15T16:39:43;5.60;92.30
20856;DHT22;63058;49.424;8.420;2023-02-15T16:42:11;5.50;92.10
20856;DHT22;63058;49.424;8.420;2023-02-15T16:44:39;5.40;92.20
20856;DHT22;63058;49.424;8.420;2023-02-15T16:47:31;5.40;92.30
20856;DHT22;63058;49.424;8.420;2023-02-15T16:49:58;5.30;92.40
20856;DHT22;63058;49.424;8.420;2023-02-15T16:52:27;5.30;92.40
20856;DHT22;63058;49.424;8.420;2023-02-15T16:55:03;5.20;92.30
20856;DHT22;63058;49.424;8.420;2023-02-15T16:57:35;5.20;92.40
20856;DHT22;63058;49.424;8.420;2023-02-15T17:00:05;5.20;92.40
20856;DHT22;63058;49.424;8.420;2023-02-15T17:02:33;5.10;92.30
20856;DHT22;63058;49.424;8.420;2023-02-15T17:07:41;5.00;92.50
20856;DHT22;63058;49.424;8.420;2023-02-15T17:10:46;4.90;92.30
20856;DHT22;63058;49.424;8.420;2023-02-15T17:13:27;4.90;92.60
20856;DHT22;63058;49.424;8.420;2023-02-15T17:18:44;4.80;92.20
20856;DHT22;63058;49.424;8.420;2023-02-15T17:21:17;4.80;92.20
20856;DHT22;63058;49.424;8.420;2023-02-15T17:23:46;4.70;92.30
20856;DHT22;63058;49.424;8.420;2023-02-15T17:26:24;4.70;92.30
20856;DHT22;63058;49.424;8.420;2023-02-15T17:28:54;4.60;92.40
20856;DHT22;63058;49.424;8.420;2023-02-15T17:31:21;4.60;92.40
20856;DHT22;63058;49.424;8.420;2023-02-15T17:33:49;4.60;92.40
20856;DHT22;63058;49.424;8.420;2023-02-15T17:36:23;4.60;92.30
20856;DHT22;63058;49.424;8.420;2023-02-15T17:39:20;4.50;92.40
20856;DHT22;63058;49.424;8.420;2023-02-15T17:41:45;4.40;92.40
20856;DHT22;63058;49.424;8.420;2023-02-15T17:44:12;4.40;92.30
20856;DHT22;63058;49.424;8.420;2023-02-15T17:46:41;4.40;92.40
20856;DHT22;63058;49.424;8.420;2023-02-15T17:49:10;4.30;92.40
20856;DHT22;63058;49.424;8.420;2023-02-15T17:51:39;4.30;92.40
20856;DHT22;63058;49.424;8.420;2023-02-15T17:54:07;4.30;92.30
20856;DHT22;63058;49.424;8.420;2023-02-15T17:56:51;4.30;92.30
20856;DHT22;63058;49.424;8.420;2023-02-15T17:59:17;4.20;92.20
20856;DHT22;63058;49.424;8.420;2023-02-15T18:01:46;4.20;92.30
20856;DHT22;63058;49.424;8.420;2023-02-15T18:04:32;4.20;92.40
20856;DHT22;63058;49.424;8.420;2023-02-15T18:07:18;4.20;92.60
20856;DHT22;63058;49.424;8.420;2023-02-15T18:10:13;4.20;92.60
20856;DHT22;63058;49.424;8.420;2023-02-15T18:12:57;4.10;92.50
20856;DHT22;63058;49.424;8.420;2023-02-15T18:15:23;4.20;92.70
20856;DHT22;63058;49.424;8.420;2023-02-15T18:17:49;4.10;92.80
20856;DHT22;63058;49.424;8.420;2023-02-15T18:20:21;4.10;92.80
20856;DHT22;63058;49.424;8.420;2023-02-15T18:22:48;4.10;92.90
20856;DHT22;63058;49.424;8.420;2023-02-15T18:25:17;4.10;92.90
20856;DHT22;63058;49.424;8.420;2023-02-15T18:27:44;4.20;92.90
20856;DHT22;63058;49.424;8.420;2023-02-15T18:30:17;4.20;92.80
20856;DHT22;63058;49.424;8.420;2023-02-15T18:32:44;4.20;92.80
20856;DHT22;63058;49.424;8.420;2023-02-15T18:35:22;4.20;92.70
20856;DHT22;63058;49.424;8.420;2023-02-15T18:37:49;4.10;92.80
20856;DHT22;63058;49.424;8.420;2023-02-15T18:40:15;4.10;92.60
20856;DHT22;63058;49.424;8.420;2023-02-15T18:42:42;4.10;92.60
20856;DHT22;63058;49.424;8.420;2023-02-15T18:45:24;4.00;92.60
20856;DHT22;63058;49.424;8.420;2023-02-15T18:47:53;4.00;92.80
20856;DHT22;63058;49.424;8.420;2023-02-15T18:50:20;4.00;92.80
20856;DHT22;63058;49.424;8.420;2023-02-15T18:52:48;4.00;92.80
20856;DHT22;63058;49.424;8.420;2023-02-15T18:55:22;4.00;92.70
20856;DHT22;63058;49.424;8.420;2023-02-15T18:57:49;4.00;92.80
20856;DHT22;63058;49.424;8.420;2023-02-15T19:02:45;3.90;92.70
20856;DHT22;63058;49.424;8.420;2023-02-15T19:05:11;3.90;92.60